createdAt,value
2023-05-09T00:01:20.705Z,100.00
2023-05-09T00:03:47.523Z,100.00
2023-05-09T00:06:15.359Z,100.00
2023-05-09T00:08:41.941Z,100.00
2023-05-09T00:11:08.538Z,100.00
2023-05-09T00:13:35.762Z,100.00
2023-05-09T00:16:03.518Z,100.00
2023-05-09T00:18:31.141Z,100.00
2023-05-09T00:20:58.170Z,100.00
2023-05-09T00:23:24.759Z,100.00
2023-05-09T00:25:51.411Z,100.00
2023-05-09T00:28:18.042Z,100.00
2023-05-09T00:30:44.691Z,100.00
2023-05-09T00:33:11.756Z,100.00
2023-05-09T00:35:38.444Z,100.00
2023-05-09T00:38:05.357Z,100.00
2023-05-09T00:40:31.996Z,100.00
2023-05-09T00:42:59.677Z,100.00
2023-05-09T00:45:26.726Z,100.00
2023-05-09T00:47:55.638Z,100.00
2023-05-09T00:50:22.319Z,100.00
2023-05-09T00:52:49.024Z,100.00
2023-05-09T00:55:16.361Z,100.00
2023-05-09T00:57:43.290Z,100.00
2023-05-09T01:00:13.337Z,100.00
2023-05-09T01:02:46.645Z,100.00
2023-05-09T01:05:15.111Z,100.00
2023-05-09T01:08:03.145Z,100.00
2023-05-09T01:10:55.124Z,100.00
2023-05-09T01:13:30.103Z,100.00
2023-05-09T01:15:59.654Z,100.00
2023-05-09T01:18:33.391Z,100.00
2023-05-09T01:21:11.276Z,100.00
2023-05-09T01:23:44.180Z,100.00
2023-05-09T01:26:20.099Z,100.00
2023-05-09T01:29:28.505Z,100.00
2023-05-09T01:31:57.640Z,100.00
2023-05-09T01:34:27.122Z,100.00
2023-05-09T01:36:58.551Z,100.00
2023-05-09T01:39:26.792Z,100.00
2023-05-09T01:41:56.574Z,100.00
2023-05-09T01:44:25.533Z,100.00
2023-05-09T01:46:54.805Z,100.00
2023-05-09T01:49:22.748Z,100.00
2023-05-09T01:51:51.049Z,100.00
2023-05-09T01:54:18.657Z,100.00
2023-05-09T01:56:47.090Z,100.00
2023-05-09T01:59:16.446Z,100.00
2023-05-09T02:01:45.548Z,100.00
2023-05-09T02:04:15.868Z,100.00
2023-05-09T02:06:44.661Z,100.00
2023-05-09T02:09:12.865Z,100.00
2023-05-09T02:11:40.539Z,100.00
2023-05-09T02:14:07.934Z,100.00
2023-05-09T02:16:35.452Z,100.00
2023-05-09T02:19:02.621Z,100.00
2023-05-09T02:21:29.350Z,100.00
2023-05-09T02:23:56.098Z,100.00
2023-05-09T02:26:23.084Z,100.00
2023-05-09T02:28:50.802Z,100.00
2023-05-09T02:31:20.297Z,100.00
2023-05-09T02:33:48.003Z,100.00
2023-05-09T02:36:16.592Z,100.00
2023-05-09T02:38:44.099Z,100.00
2023-05-09T02:41:14.866Z,100.00
2023-05-09T02:43:42.025Z,100.00
2023-05-09T02:46:10.234Z,100.00
2023-05-09T02:48:37.465Z,100.00
2023-05-09T02:51:05.047Z,100.00
2023-05-09T02:53:31.761Z,100.00
2023-05-09T02:55:58.721Z,100.00
2023-05-09T02:58:25.390Z,100.00
2023-05-09T03:00:52.007Z,100.00
2023-05-09T03:03:19.302Z,100.00
2023-05-09T03:05:46.579Z,100.00
2023-05-09T03:08:13.238Z,100.00
2023-05-09T03:10:39.913Z,100.00
2023-05-09T03:13:08.426Z,100.00
2023-05-09T03:15:35.194Z,100.00
2023-05-09T03:18:02.861Z,100.00
2023-05-09T03:20:29.672Z,100.00
2023-05-09T03:22:56.329Z,100.00
2023-05-09T03:25:22.987Z,100.00
2023-05-09T03:27:49.726Z,100.00
2023-05-09T03:30:16.451Z,100.00
2023-05-09T03:32:45.547Z,100.00
2023-05-09T03:35:12.430Z,100.00
2023-05-09T03:37:39.094Z,100.00
2023-05-09T03:40:07.809Z,100.00
2023-05-09T03:42:41.000Z,100.00
2023-05-09T03:45:08.127Z,100.00
2023-05-09T03:47:34.769Z,100.00
2023-05-09T03:50:01.830Z,100.00
2023-05-09T03:52:28.904Z,100.00
2023-05-09T03:54:55.639Z,100.00
2023-05-09T03:57:22.631Z,100.00
2023-05-09T03:59:51.313Z,100.00
2023-05-09T04:02:18.191Z,100.00
2023-05-09T04:04:47.323Z,100.00
2023-05-09T04:07:16.975Z,100.00
2023-05-09T04:09:45.160Z,100.00
2023-05-09T04:12:11.936Z,100.00
2023-05-09T04:14:39.270Z,100.00
2023-05-09T04:17:05.975Z,100.00
2023-05-09T04:19:32.715Z,100.00
2023-05-09T04:21:59.330Z,100.00
2023-05-09T04:24:26.443Z,100.00
2023-05-09T04:26:53.359Z,100.00
2023-05-09T04:29:23.066Z,100.00
2023-05-09T04:31:53.702Z,100.00
2023-05-09T04:34:23.769Z,100.00
2023-05-09T04:36:52.205Z,100.00
2023-05-09T04:39:19.710Z,100.00
2023-05-09T04:41:55.817Z,100.00
2023-05-09T04:44:23.426Z,100.00
2023-05-09T04:46:50.712Z,100.00
2023-05-09T04:49:17.346Z,100.00
2023-05-09T04:51:43.913Z,100.00
2023-05-09T04:54:10.575Z,100.00
2023-05-09T04:56:39.044Z,100.00
2023-05-09T04:59:05.767Z,100.00
2023-05-09T05:01:32.557Z,100.00
2023-05-09T05:04:00.017Z,100.00
2023-05-09T05:06:26.754Z,100.00
2023-05-09T05:08:53.312Z,100.00
2023-05-09T05:11:20.569Z,100.00
2023-05-09T05:13:47.245Z,100.00
2023-05-09T05:16:14.012Z,100.00
2023-05-09T05:18:41.157Z,100.00
2023-05-09T05:21:08.504Z,100.00
2023-05-09T05:23:35.366Z,100.00
2023-05-09T05:26:02.796Z,100.00
2023-05-09T05:28:31.393Z,100.00
2023-05-09T05:30:58.373Z,100.00
2023-05-09T05:33:25.094Z,100.00
2023-05-09T05:35:52.363Z,100.00
2023-05-09T05:38:19.318Z,100.00
2023-05-09T05:40:49.801Z,100.00
2023-05-09T05:43:16.722Z,100.00
2023-05-09T05:45:43.361Z,100.00
2023-05-09T05:48:15.395Z,100.00
2023-05-09T05:50:42.349Z,100.00
2023-05-09T05:53:10.060Z,100.00
2023-05-09T05:55:37.113Z,100.00
2023-05-09T05:58:05.206Z,100.00
2023-05-09T06:00:31.769Z,100.00
2023-05-09T06:03:03.710Z,100.00
2023-05-09T06:05:50.957Z,100.00
2023-05-09T06:08:17.984Z,100.00
2023-05-09T06:10:44.620Z,100.00
2023-05-09T06:13:11.276Z,100.00
2023-05-09T06:15:41.112Z,100.00
2023-05-09T06:18:08.780Z,100.00
2023-05-09T06:20:36.056Z,100.00
2023-05-09T06:23:02.661Z,100.00
2023-05-09T06:25:29.584Z,100.00
2023-05-09T06:27:56.328Z,100.00
2023-05-09T06:30:26.759Z,100.00
2023-05-09T06:32:54.963Z,100.00
2023-05-09T06:35:21.893Z,100.00
2023-05-09T06:37:49.017Z,100.00
2023-05-09T06:40:16.848Z,100.00
2023-05-09T06:42:43.753Z,100.00
2023-05-09T06:45:11.466Z,100.00
2023-05-09T06:47:38.118Z,100.00
2023-05-09T06:50:05.212Z,100.00
2023-05-09T06:52:31.759Z,100.00
2023-05-09T06:54:58.276Z,100.00
2023-05-09T06:57:25.059Z,100.00
2023-05-09T06:59:51.738Z,100.00
2023-05-09T07:02:18.596Z,100.00
2023-05-09T07:04:45.244Z,100.00
2023-05-09T07:07:11.899Z,100.00
2023-05-09T07:09:38.483Z,100.00
2023-05-09T07:12:05.557Z,100.00
2023-05-09T07:14:32.159Z,100.00
2023-05-09T07:17:13.775Z,100.00
2023-05-09T07:19:45.699Z,100.00
2023-05-09T07:22:13.514Z,100.00
2023-05-09T07:24:40.238Z,100.00
2023-05-09T07:27:07.108Z,100.00
2023-05-09T07:29:33.626Z,100.00
2023-05-09T07:32:00.504Z,100.00
2023-05-09T07:34:27.378Z,100.00
2023-05-09T07:36:54.646Z,100.00
2023-05-09T07:39:21.259Z,100.00
2023-05-09T07:41:48.775Z,100.00
2023-05-09T07:44:15.988Z,100.00
2023-05-09T07:46:42.880Z,100.00
2023-05-09T07:49:09.613Z,100.00
2023-05-09T07:51:36.213Z,100.00
2023-05-09T07:54:03.052Z,100.00
2023-05-09T07:56:29.606Z,100.00
2023-05-09T07:58:56.152Z,100.00
2023-05-09T08:01:22.755Z,100.00
2023-05-09T08:03:49.627Z,100.00
2023-05-09T08:06:16.277Z,100.00
2023-05-09T08:08:42.862Z,100.00
2023-05-09T08:11:09.703Z,100.00
2023-05-09T08:13:36.526Z,100.00
2023-05-09T08:16:03.214Z,100.00
2023-05-09T08:18:29.799Z,100.00
2023-05-09T08:20:56.489Z,100.00
2023-05-09T08:23:23.000Z,100.00
2023-05-09T08:25:54.229Z,100.00
2023-05-09T08:28:24.114Z,100.00
2023-05-09T08:30:51.736Z,100.00
2023-05-09T08:33:18.490Z,100.00
2023-05-09T08:35:45.758Z,100.00
2023-05-09T08:38:12.310Z,100.00
2023-05-09T08:40:40.798Z,100.00
2023-05-09T08:43:08.049Z,100.00
2023-05-09T08:46:06.886Z,100.00
2023-05-09T08:48:37.552Z,100.00
2023-05-09T08:51:07.675Z,100.00
2023-05-09T08:53:34.313Z,100.00
2023-05-09T08:56:03.745Z,100.00
2023-05-09T08:58:31.472Z,100.00
2023-05-09T09:00:59.118Z,100.00
2023-05-09T09:03:26.309Z,100.00
2023-05-09T09:05:54.922Z,100.00
2023-05-09T09:08:22.380Z,100.00
2023-05-09T09:10:49.565Z,100.00
2023-05-09T09:13:17.690Z,100.00
2023-05-09T09:15:46.311Z,100.00
2023-05-09T09:18:19.700Z,100.00
2023-05-09T09:21:15.771Z,100.00
2023-05-09T09:23:44.022Z,100.00
2023-05-09T09:26:10.987Z,100.00
2023-05-09T09:28:37.650Z,96.40
2023-05-09T09:31:21.798Z,93.33
2023-05-09T09:33:49.235Z,96.46
2023-05-09T09:36:15.805Z,98.66
2023-05-09T09:38:43.927Z,94.47
2023-05-09T09:41:12.891Z,90.15
2023-05-09T09:43:45.480Z,88.42
2023-05-09T09:46:14.390Z,84.80
2023-05-09T09:48:50.333Z,88.98
2023-05-09T09:51:18.436Z,96.77
2023-05-09T09:53:45.141Z,95.50
2023-05-09T09:56:11.803Z,86.31
2023-05-09T09:58:38.964Z,90.30
2023-05-09T10:01:16.697Z,86.58
2023-05-09T10:03:48.095Z,81.75
2023-05-09T10:06:16.438Z,91.73
2023-05-09T10:08:48.874Z,81.68
2023-05-09T10:11:15.488Z,84.47
2023-05-09T10:13:43.717Z,77.08
2023-05-09T10:16:11.638Z,79.17
2023-05-09T10:18:41.135Z,82.42
2023-05-09T10:21:11.299Z,77.83
2023-05-09T10:23:38.316Z,82.83
2023-05-09T10:26:22.996Z,84.65
2023-05-09T10:28:54.795Z,82.48
2023-05-09T10:31:29.273Z,78.63
2023-05-09T10:33:56.520Z,76.83
2023-05-09T10:36:26.344Z,78.69
2023-05-09T10:38:54.959Z,78.32
2023-05-09T10:41:22.521Z,69.36
2023-05-09T10:43:49.606Z,75.64
2023-05-09T10:46:16.814Z,68.35
2023-05-09T10:48:44.527Z,69.85
2023-05-09T10:51:13.064Z,78.93
2023-05-09T10:53:45.857Z,72.16
2023-05-09T10:56:32.502Z,75.05
2023-05-09T10:59:00.298Z,79.50
2023-05-09T11:01:39.231Z,71.32
2023-05-09T11:04:11.139Z,68.72
2023-05-09T11:06:52.234Z,66.51
2023-05-09T11:09:33.294Z,67.10
2023-05-09T11:12:09.645Z,65.63
2023-05-09T11:14:47.844Z,63.95
2023-05-09T11:17:21.222Z,64.26
2023-05-09T11:19:47.815Z,58.04
2023-05-09T11:22:22.266Z,68.27
2023-05-09T11:24:58.965Z,64.17
2023-05-09T11:27:28.484Z,60.47
2023-05-09T11:29:59.488Z,57.76
2023-05-09T11:32:40.404Z,56.97
2023-05-09T11:35:09.406Z,62.13
2023-05-09T11:37:51.338Z,61.17
2023-05-09T11:40:20.259Z,56.37
2023-05-09T11:42:50.080Z,55.21
2023-05-09T11:45:17.702Z,54.21
2023-05-09T11:47:46.272Z,52.26
2023-05-09T11:50:14.530Z,56.17
2023-05-09T11:52:42.118Z,60.75
2023-05-09T11:55:13.067Z,64.71
2023-05-09T11:57:41.624Z,65.30
2023-05-09T12:00:10.411Z,63.74
2023-05-09T12:02:38.302Z,60.83
2023-05-09T12:05:13.642Z,57.47
2023-05-09T12:07:41.550Z,58.53
2023-05-09T12:10:09.254Z,52.72
2023-05-09T12:12:46.337Z,48.81
2023-05-09T12:15:14.171Z,45.56
2023-05-09T12:17:47.073Z,43.39
2023-05-09T12:20:15.198Z,46.97
2023-05-09T12:22:44.887Z,50.17
2023-05-09T12:25:12.282Z,52.78
2023-05-09T12:27:40.660Z,60.50
2023-05-09T12:30:10.296Z,57.77
2023-05-09T12:32:40.317Z,62.20
2023-05-09T12:35:09.632Z,55.90
2023-05-09T12:37:36.440Z,48.42
2023-05-09T12:40:05.011Z,49.93
2023-05-09T12:42:32.310Z,47.19
2023-05-09T12:44:59.664Z,44.58
2023-05-09T12:47:30.082Z,38.41
2023-05-09T12:50:01.551Z,40.39
2023-05-09T12:52:38.127Z,38.31
2023-05-09T12:55:13.848Z,36.89
2023-05-09T12:57:41.983Z,37.84
2023-05-09T13:00:10.243Z,36.40
2023-05-09T13:02:39.844Z,37.25
2023-05-09T13:05:10.899Z,35.76
2023-05-09T13:07:45.154Z,37.18
2023-05-09T13:10:12.758Z,38.66
2023-05-09T13:12:40.478Z,34.30
2023-05-09T13:15:08.491Z,34.98
2023-05-09T13:17:35.120Z,32.68
2023-05-09T13:20:01.812Z,34.54
2023-05-09T13:22:28.591Z,34.45
2023-05-09T13:24:55.176Z,36.83
2023-05-09T13:27:21.785Z,36.54
2023-05-09T13:29:48.545Z,35.77
2023-05-09T13:32:15.117Z,37.15
2023-05-09T13:34:42.470Z,37.87
2023-05-09T13:37:09.009Z,34.78
2023-05-09T13:39:35.922Z,35.64
2023-05-09T13:42:02.564Z,34.36
2023-05-09T13:44:29.199Z,34.69
2023-05-09T13:46:57.630Z,31.99
2023-05-09T13:49:24.288Z,32.47
2023-05-09T13:51:50.879Z,31.87
2023-05-09T13:54:19.668Z,31.46
2023-05-09T13:56:46.242Z,32.19
2023-05-09T13:59:12.981Z,33.01
2023-05-09T14:01:39.709Z,36.56
2023-05-09T14:04:06.442Z,35.84
2023-05-09T14:06:33.358Z,32.71
2023-05-09T14:08:59.959Z,33.23
2023-05-09T14:11:26.728Z,32.57
2023-05-09T14:13:53.515Z,31.35
2023-05-09T14:16:21.094Z,32.69
2023-05-09T14:18:48.405Z,34.37
2023-05-09T14:21:15.522Z,35.21
2023-05-09T14:23:42.278Z,35.77
2023-05-09T14:26:08.965Z,31.24
2023-05-09T14:28:36.887Z,32.32
2023-05-09T14:31:03.599Z,34.75
2023-05-09T14:33:30.859Z,37.90
2023-05-09T14:35:57.504Z,40.46
2023-05-09T14:38:24.190Z,41.15
2023-05-09T14:40:50.938Z,42.91
2023-05-09T14:43:17.527Z,42.79
2023-05-09T14:45:44.381Z,42.60
2023-05-09T14:48:12.267Z,44.38
2023-05-09T14:50:40.098Z,44.72
2023-05-09T14:53:07.083Z,41.77
2023-05-09T14:55:33.908Z,37.27
2023-05-09T14:58:00.535Z,35.84
2023-05-09T15:00:28.534Z,36.71
2023-05-09T15:02:56.131Z,36.71
2023-05-09T15:05:22.802Z,35.35
2023-05-09T15:07:49.483Z,35.76
2023-05-09T15:10:16.332Z,36.16
2023-05-09T15:12:43.319Z,38.22
2023-05-09T15:15:13.292Z,40.09
2023-05-09T15:17:39.947Z,40.99
2023-05-09T15:20:07.453Z,40.55
2023-05-09T15:22:34.565Z,40.74
2023-05-09T15:25:02.036Z,38.18
2023-05-09T15:27:29.497Z,38.45
2023-05-09T15:29:56.205Z,37.45
2023-05-09T15:32:22.891Z,37.62
2023-05-09T15:34:49.510Z,37.96
2023-05-09T15:37:16.223Z,40.08
2023-05-09T15:39:43.642Z,40.98
2023-05-09T15:42:12.284Z,42.82
2023-05-09T15:44:40.106Z,41.27
2023-05-09T15:47:07.504Z,42.07
2023-05-09T15:49:34.477Z,40.04
2023-05-09T15:52:05.341Z,40.13
2023-05-09T15:54:33.556Z,40.21
2023-05-09T15:57:00.685Z,42.20
2023-05-09T15:59:27.662Z,43.76
2023-05-09T16:01:55.078Z,44.18
2023-05-09T16:04:22.107Z,43.84
2023-05-09T16:06:49.022Z,44.17
2023-05-09T16:09:15.832Z,45.16
2023-05-09T16:11:42.850Z,44.33
2023-05-09T16:14:11.432Z,43.78
2023-05-09T16:16:39.491Z,44.25
2023-05-09T16:19:06.779Z,45.88
2023-05-09T16:21:33.621Z,45.60
2023-05-09T16:24:02.949Z,44.59
2023-05-09T16:26:29.641Z,46.69
2023-05-09T16:28:56.654Z,47.70
2023-05-09T16:31:26.647Z,50.26
2023-05-09T16:33:54.205Z,51.43
2023-05-09T16:36:21.317Z,50.98
2023-05-09T16:38:48.131Z,50.85
2023-05-09T16:41:15.297Z,50.95
2023-05-09T16:43:42.718Z,50.77
2023-05-09T16:46:09.458Z,51.24
2023-05-09T16:48:36.145Z,54.76
2023-05-09T16:51:03.338Z,57.55
2023-05-09T16:53:29.934Z,58.32
2023-05-09T16:55:56.982Z,58.75
2023-05-09T16:58:23.672Z,62.35
2023-05-09T17:00:50.967Z,60.90
2023-05-09T17:03:17.625Z,62.30
2023-05-09T17:05:44.223Z,62.30
2023-05-09T17:08:11.334Z,65.80
2023-05-09T17:10:39.495Z,66.66
2023-05-09T17:13:08.842Z,67.76
2023-05-09T17:15:35.809Z,68.46
2023-05-09T17:18:03.137Z,69.36
2023-05-09T17:20:30.874Z,71.17
2023-05-09T17:22:57.848Z,72.13
2023-05-09T17:25:24.559Z,73.03
2023-05-09T17:27:51.100Z,73.38
2023-05-09T17:30:19.909Z,75.55
2023-05-09T17:32:48.048Z,76.00
2023-05-09T17:35:15.070Z,76.76
2023-05-09T17:37:41.666Z,79.50
2023-05-09T17:40:08.798Z,79.89
2023-05-09T17:42:35.430Z,80.30
2023-05-09T17:45:02.017Z,82.08
2023-05-09T17:47:29.096Z,84.23
2023-05-09T17:49:55.727Z,83.42
2023-05-09T17:52:22.599Z,85.48
2023-05-09T17:54:49.237Z,85.07
2023-05-09T17:57:15.772Z,86.11
2023-05-09T17:59:42.580Z,85.96
2023-05-09T18:02:09.181Z,88.74
2023-05-09T18:04:36.092Z,87.45
2023-05-09T18:07:02.754Z,89.66
2023-05-09T18:09:29.495Z,89.33
2023-05-09T18:11:56.109Z,89.93
2023-05-09T18:14:22.700Z,89.84
2023-05-09T18:16:49.367Z,92.32
2023-05-09T18:19:16.208Z,92.63
2023-05-09T18:21:42.897Z,92.96
2023-05-09T18:24:09.563Z,94.41
2023-05-09T18:26:36.189Z,94.20
2023-05-09T18:29:02.769Z,95.61
2023-05-09T18:31:31.235Z,96.09
2023-05-09T18:33:58.009Z,97.89
2023-05-09T18:36:24.637Z,96.41
2023-05-09T18:38:51.275Z,96.18
2023-05-09T18:41:18.018Z,96.86
2023-05-09T18:43:45.949Z,96.08
2023-05-09T18:46:17.461Z,98.66
2023-05-09T18:48:45.350Z,99.19
2023-05-09T18:51:12.156Z,99.91
2023-05-09T18:53:38.944Z,100.00
2023-05-09T18:56:05.651Z,100.00
2023-05-09T18:58:32.510Z,100.00
2023-05-09T19:00:59.226Z,100.00
2023-05-09T19:03:27.174Z,100.00
2023-05-09T19:05:54.362Z,100.00
2023-05-09T19:08:21.067Z,100.00
2023-05-09T19:10:47.850Z,100.00
2023-05-09T19:13:16.264Z,100.00
2023-05-09T19:15:43.614Z,100.00
2023-05-09T19:18:10.224Z,100.00
2023-05-09T19:20:36.873Z,100.00
2023-05-09T19:23:03.600Z,100.00
2023-05-09T19:25:33.650Z,100.00
2023-05-09T19:28:00.730Z,100.00
2023-05-09T19:30:27.459Z,100.00
2023-05-09T19:32:54.142Z,100.00
2023-05-09T19:35:20.837Z,100.00
2023-05-09T19:37:47.436Z,100.00
2023-05-09T19:40:14.819Z,100.00
2023-05-09T19:42:41.939Z,100.00
2023-05-09T19:45:09.166Z,100.00
2023-05-09T19:47:35.994Z,100.00
2023-05-09T19:50:02.686Z,100.00
2023-05-09T19:52:29.934Z,100.00
2023-05-09T19:54:56.672Z,100.00
2023-05-09T19:57:23.382Z,100.00
2023-05-09T19:59:49.897Z,100.00
2023-05-09T20:02:16.445Z,100.00
2023-05-09T20:04:49.721Z,100.00
2023-05-09T20:07:17.284Z,100.00
2023-05-09T20:09:44.092Z,100.00
2023-05-09T20:12:10.883Z,100.00
2023-05-09T20:14:37.642Z,100.00
2023-05-09T20:17:05.368Z,100.00
2023-05-09T20:19:33.183Z,100.00
2023-05-09T20:22:01.186Z,100.00
2023-05-09T20:24:28.610Z,100.00
2023-05-09T20:26:55.281Z,100.00
2023-05-09T20:29:22.045Z,100.00
2023-05-09T20:31:48.752Z,100.00
2023-05-09T20:34:17.938Z,100.00
2023-05-09T20:36:52.151Z,100.00
2023-05-09T20:39:23.202Z,100.00
2023-05-09T20:41:50.690Z,100.00
2023-05-09T20:44:17.876Z,100.00
2023-05-09T20:46:45.340Z,100.00
2023-05-09T20:49:12.467Z,100.00
2023-05-09T20:51:39.203Z,100.00
2023-05-09T20:54:06.421Z,100.00
2023-05-09T20:56:35.420Z,100.00
2023-05-09T20:59:03.988Z,100.00
2023-05-09T21:01:32.576Z,100.00
2023-05-09T21:03:59.368Z,100.00
2023-05-09T21:06:26.042Z,100.00
2023-05-09T21:08:52.680Z,100.00
2023-05-09T21:11:19.337Z,100.00
2023-05-09T21:13:45.906Z,100.00
2023-05-09T21:16:12.524Z,100.00
2023-05-09T21:18:39.076Z,100.00
2023-05-09T21:21:08.057Z,100.00
2023-05-09T21:23:34.963Z,100.00
2023-05-09T21:26:02.425Z,100.00
2023-05-09T21:28:29.331Z,100.00
2023-05-09T21:30:56.298Z,100.00
2023-05-09T21:33:22.994Z,100.00
2023-05-09T21:35:49.664Z,100.00
2023-05-09T21:38:16.244Z,100.00
2023-05-09T21:40:42.827Z,100.00
2023-05-09T21:43:09.434Z,100.00
2023-05-09T21:45:36.002Z,100.00
2023-05-09T21:48:02.842Z,100.00
2023-05-09T21:50:29.483Z,100.00
2023-05-09T21:52:59.202Z,100.00
2023-05-09T21:55:25.891Z,100.00
2023-05-09T21:57:52.485Z,100.00
2023-05-09T22:00:19.630Z,100.00
2023-05-09T22:02:47.007Z,100.00
2023-05-09T22:05:13.713Z,100.00
2023-05-09T22:07:40.337Z,100.00
2023-05-09T22:10:07.595Z,100.00
2023-05-09T22:12:34.186Z,100.00
2023-05-09T22:15:00.904Z,100.00
2023-05-09T22:17:27.692Z,100.00
2023-05-09T22:19:54.541Z,100.00
2023-05-09T22:22:21.371Z,100.00
2023-05-09T22:24:49.600Z,100.00
2023-05-09T22:27:16.343Z,100.00
2023-05-09T22:29:42.880Z,100.00
2023-05-09T22:32:10.032Z,100.00
2023-05-09T22:34:36.816Z,100.00
2023-05-09T22:37:03.573Z,100.00
2023-05-09T22:39:30.894Z,100.00
2023-05-09T22:41:57.506Z,100.00
2023-05-09T22:44:24.067Z,100.00
2023-05-09T22:46:50.800Z,100.00
2023-05-09T22:49:17.685Z,100.00
2023-05-09T22:51:44.266Z,100.00
2023-05-09T22:54:10.917Z,100.00
2023-05-09T22:56:37.538Z,100.00
2023-05-09T22:59:04.541Z,100.00
2023-05-09T23:01:31.559Z,100.00
2023-05-09T23:03:58.160Z,100.00
2023-05-09T23:06:25.001Z,100.00
2023-05-09T23:08:51.763Z,100.00
2023-05-09T23:11:18.484Z,100.00
2023-05-09T23:13:45.178Z,100.00
2023-05-09T23:16:11.738Z,100.00
2023-05-09T23:18:38.437Z,100.00
2023-05-09T23:21:05.182Z,100.00
2023-05-09T23:23:31.752Z,100.00
2023-05-09T23:25:58.738Z,100.00
2023-05-09T23:28:25.381Z,100.00
2023-05-09T23:30:53.893Z,100.00
2023-05-09T23:33:20.587Z,100.00
2023-05-09T23:35:48.225Z,100.00
2023-05-09T23:38:15.007Z,100.00
2023-05-09T23:40:45.031Z,100.00
2023-05-09T23:43:12.644Z,100.00
2023-05-09T23:45:39.881Z,100.00
2023-05-09T23:48:07.499Z,100.00
2023-05-09T23:50:34.196Z,100.00
2023-05-09T23:53:00.839Z,100.00
2023-05-09T23:55:27.959Z,100.00
2023-05-09T23:57:54.700Z,100.00
